sensor_id;sensor_type;location;lat;lon;timestamp;temperature;humidity
3053;DHT22;1536;51.098;6.414;2023-06-10T00:02:02;21.60;99.90
3053;DHT22;1536;51.098;6.414;2023-06-10T00:04:29;21.60;99.90
3053;DHT22;1536;51.098;6.414;2023-06-10T00:06:56;21.60;99.90
3053;DHT22;1536;51.098;6.414;2023-06-10T00:09:22;21.60;99.90
3053;DHT22;1536;51.098;6.414;2023-06-10T00:11:49;21.60;99.90
3053;DHT22;1536;51.098;6.414;2023-06-10T00:14:17;21.60;99.90
3053;DHT22;1536;51.098;6.414;2023-06-10T00:16:44;21.50;99.90
3053;DHT22;1536;51.098;6.414;2023-06-10T00:19:12;21.50;99.90
3053;DHT22;1536;51.098;6.414;2023-06-10T00:21:40;21.50;99.90
3053;DHT22;1536;51.098;6.414;2023-06-10T00:24:11;21.50;99.90
3053;DHT22;1536;51.098;6.414;2023-06-10T00:26:38;21.50;99.90
3053;DHT22;1536;51.098;6.414;2023-06-10T00:29:05;21.40;99.90
3053;DHT22;1536;51.098;6.414;2023-06-10T00:31:34;21.40;99.90
3053;DHT22;1536;51.098;6.414;2023-06-10T00:34:00;21.40;99.90
3053;DHT22;1536;51.098;6.414;2023-06-10T00:36:29;21.40;99.90
3053;DHT22;1536;51.098;6.414;2023-06-10T00:38:55;21.40;99.90
3053;DHT22;1536;51.098;6.414;2023-06-10T00:41:22;21.40;99.90
3053;DHT22;1536;51.098;6.414;2023-06-10T00:43:49;21.30;99.90
3053;DHT22;1536;51.098;6.414;2023-06-10T00:46:16;21.30;99.90
3053;DHT22;1536;51.098;6.414;2023-06-10T00:48:45;21.30;99.90
3053;DHT22;1536;51.098;6.414;2023-06-10T00:51:12;21.30;99.90
3053;DHT22;1536;51.098;6.414;2023-06-10T00:53:41;21.30;99.90
3053;DHT22;1536;51.098;6.414;2023-06-10T00:56:07;21.30;99.90
3053;DHT22;1536;51.098;6.414;2023-06-10T00:58:34;21.30;99.90
3053;DHT22;1536;51.098;6.414;2023-06-10T01:01:02;21.30;99.90
3053;DHT22;1536;51.098;6.414;2023-06-10T01:03:30;21.30;99.90
3053;DHT22;1536;51.098;6.414;2023-06-10T01:06:00;21.30;99.90
3053;DHT22;1536;51.098;6.414;2023-06-10T01:08:35;21.30;99.90
3053;DHT22;1536;51.098;6.414;2023-06-10T01:11:08;21.30;99.90
3053;DHT22;1536;51.098;6.414;2023-06-10T01:13:41;21.30;99.90
3053;DHT22;1536;51.098;6.414;2023-06-10T01:16:09;21.30;99.90
3053;DHT22;1536;51.098;6.414;2023-06-10T01:18:36;21.30;99.90
3053;DHT22;1536;51.098;6.414;2023-06-10T01:21:04;21.30;99.90
3053;DHT22;1536;51.098;6.414;2023-06-10T01:23:34;21.30;99.90
3053;DHT22;1536;51.098;6.414;2023-06-10T01:26:04;21.30;99.90
3053;DHT22;1536;51.098;6.414;2023-06-10T01:28:36;21.30;99.90
3053;DHT22;1536;51.098;6.414;2023-06-10T01:31:09;21.30;99.90
3053;DHT22;1536;51.098;6.414;2023-06-10T01:33:43;21.20;99.90
3053;DHT22;1536;51.098;6.414;2023-06-10T01:36:12;21.20;99.90
3053;DHT22;1536;51.098;6.414;2023-06-10T01:38:43;21.20;99.90
3053;DHT22;1536;51.098;6.414;2023-06-10T01:41:13;21.20;99.90
3053;DHT22;1536;51.098;6.414;2023-06-10T01:43:40;21.10;99.90
3053;DHT22;1536;51.098;6.414;2023-06-10T01:46:09;21.10;99.90
3053;DHT22;1536;51.098;6.414;2023-06-10T01:48:37;21.10;99.90
3053;DHT22;1536;51.098;6.414;2023-06-10T01:51:05;21.10;99.90
3053;DHT22;1536;51.098;6.414;2023-06-10T01:53:31;21.00;99.90
3053;DHT22;1536;51.098;6.414;2023-06-10T01:55:59;21.00;99.90
3053;DHT22;1536;51.098;6.414;2023-06-10T01:58:26;21.00;99.90
3053;DHT22;1536;51.098;6.414;2023-06-10T02:00:53;21.00;99.90
3053;DHT22;1536;51.098;6.414;2023-06-10T02:03:19;21.00;99.90
3053;DHT22;1536;51.098;6.414;2023-06-10T02:05:46;21.00;99.90
3053;DHT22;1536;51.098;6.414;2023-06-10T02:08:13;21.00;99.90
3053;DHT22;1536;51.098;6.414;2023-06-10T02:10:40;20.90;99.90
3053;DHT22;1536;51.098;6.414;2023-06-10T02:13:08;20.90;99.90
3053;DHT22;1536;51.098;6.414;2023-06-10T02:15:35;20.90;99.90
3053;DHT22;1536;51.098;6.414;2023-06-10T02:18:02;20.90;99.90
3053;DHT22;1536;51.098;6.414;2023-06-10T02:20:29;20.80;99.90
3053;DHT22;1536;51.098;6.414;2023-06-10T02:22:56;20.80;99.90
3053;DHT22;1536;51.098;6.414;2023-06-10T02:25:23;20.80;99.90
3053;DHT22;1536;51.098;6.414;2023-06-10T02:27:49;20.80;99.90
3053;DHT22;1536;51.098;6.414;2023-06-10T02:30:19;20.70;99.90
3053;DHT22;1536;51.098;6.414;2023-06-10T02:32:45;20.70;99.90
3053;DHT22;1536;51.098;6.414;2023-06-10T02:35:13;20.80;99.90
3053;DHT22;1536;51.098;6.414;2023-06-10T02:37:40;20.70;99.90
3053;DHT22;1536;51.098;6.414;2023-06-10T02:40:07;20.70;99.90
3053;DHT22;1536;51.098;6.414;2023-06-10T02:42:35;20.70;99.90
3053;DHT22;1536;51.098;6.414;2023-06-10T02:45:02;20.70;99.90
3053;DHT22;1536;51.098;6.414;2023-06-10T02:47:30;20.70;99.90
3053;DHT22;1536;51.098;6.414;2023-06-10T02:49:57;20.70;99.90
3053;DHT22;1536;51.098;6.414;2023-06-10T02:52:24;20.70;99.90
3053;DHT22;1536;51.098;6.414;2023-06-10T02:54:51;20.70;99.90
3053;DHT22;1536;51.098;6.414;2023-06-10T02:57:17;20.70;99.90
3053;DHT22;1536;51.098;6.414;2023-06-10T02:59:44;20.70;99.90
3053;DHT22;1536;51.098;6.414;2023-06-10T03:02:11;20.70;99.90
3053;DHT22;1536;51.098;6.414;2023-06-10T03:04:39;20.70;99.90
3053;DHT22;1536;51.098;6.414;2023-06-10T03:07:06;20.70;99.90
3053;DHT22;1536;51.098;6.414;2023-06-10T03:09:34;20.70;99.90
3053;DHT22;1536;51.098;6.414;2023-06-10T03:12:01;20.60;99.90
3053;DHT22;1536;51.098;6.414;2023-06-10T03:14:27;20.60;99.90
3053;DHT22;1536;51.098;6.414;2023-06-10T03:16:54;20.60;99.90
3053;DHT22;1536;51.098;6.414;2023-06-10T03:19:21;20.60;99.90
3053;DHT22;1536;51.098;6.414;2023-06-10T03:21:58;20.60;99.90
3053;DHT22;1536;51.098;6.414;2023-06-10T03:24:33;20.60;99.90
3053;DHT22;1536;51.098;6.414;2023-06-10T03:27:01;20.60;99.90
3053;DHT22;1536;51.098;6.414;2023-06-10T03:29:30;20.60;99.90
3053;DHT22;1536;51.098;6.414;2023-06-10T03:31:57;20.60;99.90
3053;DHT22;1536;51.098;6.414;2023-06-10T03:34:24;20.50;99.90
3053;DHT22;1536;51.098;6.414;2023-06-10T03:36:52;20.50;99.90
3053;DHT22;1536;51.098;6.414;2023-06-10T03:39:19;20.50;99.90
3053;DHT22;1536;51.098;6.414;2023-06-10T03:41:46;20.50;99.90
3053;DHT22;1536;51.098;6.414;2023-06-10T03:44:12;20.50;99.90
3053;DHT22;1536;51.098;6.414;2023-06-10T03:46:39;20.50;99.90
3053;DHT22;1536;51.098;6.414;2023-06-10T03:49:06;20.50;99.90
3053;DHT22;1536;51.098;6.414;2023-06-10T03:51:33;20.40;99.90
3053;DHT22;1536;51.098;6.414;2023-06-10T03:54:01;20.50;99.90
3053;DHT22;1536;51.098;6.414;2023-06-10T03:56:28;20.40;99.90
3053;DHT22;1536;51.098;6.414;2023-06-10T03:58:55;20.40;99.90
3053;DHT22;1536;51.098;6.414;2023-06-10T04:01:21;20.40;99.90
3053;DHT22;1536;51.098;6.414;2023-06-10T04:03:49;20.40;99.90
3053;DHT22;1536;51.098;6.414;2023-06-10T04:06:16;20.40;99.90
3053;DHT22;1536;51.098;6.414;2023-06-10T04:08:43;20.40;99.90
3053;DHT22;1536;51.098;6.414;2023-06-10T04:11:11;20.40;99.90
3053;DHT22;1536;51.098;6.414;2023-06-10T04:13:38;20.30;99.90
3053;DHT22;1536;51.098;6.414;2023-06-10T04:16:05;20.30;99.90
3053;DHT22;1536;51.098;6.414;2023-06-10T04:18:32;20.30;99.90
3053;DHT22;1536;51.098;6.414;2023-06-10T04:20:58;20.30;99.90
3053;DHT22;1536;51.098;6.414;2023-06-10T04:23:25;20.30;99.90
3053;DHT22;1536;51.098;6.414;2023-06-10T04:25:52;20.30;99.90
3053;DHT22;1536;51.098;6.414;2023-06-10T04:28:20;20.30;99.90
3053;DHT22;1536;51.098;6.414;2023-06-10T04:30:47;20.40;99.90
3053;DHT22;1536;51.098;6.414;2023-06-10T04:33:13;20.40;99.90
3053;DHT22;1536;51.098;6.414;2023-06-10T04:35:40;20.40;99.90
3053;DHT22;1536;51.098;6.414;2023-06-10T04:38:07;20.40;99.90
3053;DHT22;1536;51.098;6.414;2023-06-10T04:40:34;20.40;99.90
3053;DHT22;1536;51.098;6.414;2023-06-10T04:43:01;20.50;99.90
3053;DHT22;1536;51.098;6.414;2023-06-10T04:45:29;20.50;99.90
3053;DHT22;1536;51.098;6.414;2023-06-10T04:47:56;20.50;99.90
3053;DHT22;1536;51.098;6.414;2023-06-10T04:50:23;20.50;99.90
3053;DHT22;1536;51.098;6.414;2023-06-10T04:52:50;20.60;99.90
3053;DHT22;1536;51.098;6.414;2023-06-10T04:55:17;20.60;99.90
3053;DHT22;1536;51.098;6.414;2023-06-10T04:57:44;20.60;99.90
3053;DHT22;1536;51.098;6.414;2023-06-10T05:00:11;20.70;99.90
3053;DHT22;1536;51.098;6.414;2023-06-10T05:02:39;20.70;99.90
3053;DHT22;1536;51.098;6.414;2023-06-10T05:05:06;20.70;99.90
3053;DHT22;1536;51.098;6.414;2023-06-10T05:07:33;20.80;99.90
3053;DHT22;1536;51.098;6.414;2023-06-10T05:10:00;20.80;99.90
3053;DHT22;1536;51.098;6.414;2023-06-10T05:12:28;20.80;99.90
3053;DHT22;1536;51.098;6.414;2023-06-10T05:14:54;20.90;99.90
3053;DHT22;1536;51.098;6.414;2023-06-10T05:17:21;20.90;99.90
3053;DHT22;1536;51.098;6.414;2023-06-10T05:19:49;21.00;99.90
3053;DHT22;1536;51.098;6.414;2023-06-10T05:22:16;21.00;99.90
3053;DHT22;1536;51.098;6.414;2023-06-10T05:24:43;21.10;99.90
3053;DHT22;1536;51.098;6.414;2023-06-10T05:27:10;21.10;99.90
3053;DHT22;1536;51.098;6.414;2023-06-10T05:29:37;21.20;99.90
3053;DHT22;1536;51.098;6.414;2023-06-10T05:32:06;21.20;99.90
3053;DHT22;1536;51.098;6.414;2023-06-10T05:34:33;21.30;99.90
3053;DHT22;1536;51.098;6.414;2023-06-10T05:37:02;21.30;99.90
3053;DHT22;1536;51.098;6.414;2023-06-10T05:39:28;21.40;99.90
3053;DHT22;1536;51.098;6.414;2023-06-10T05:41:55;21.40;99.90
3053;DHT22;1536;51.098;6.414;2023-06-10T05:44:24;21.50;99.90
3053;DHT22;1536;51.098;6.414;2023-06-10T05:46:51;21.60;99.90
3053;DHT22;1536;51.098;6.414;2023-06-10T05:49:17;21.60;99.90
3053;DHT22;1536;51.098;6.414;2023-06-10T05:51:44;21.70;99.90
3053;DHT22;1536;51.098;6.414;2023-06-10T05:54:12;21.80;99.90
3053;DHT22;1536;51.098;6.414;2023-06-10T05:56:39;21.80;99.90
3053;DHT22;1536;51.098;6.414;2023-06-10T05:59:05;21.90;99.90
3053;DHT22;1536;51.098;6.414;2023-06-10T06:01:32;22.00;99.90
3053;DHT22;1536;51.098;6.414;2023-06-10T06:03:59;22.00;99.90
3053;DHT22;1536;51.098;6.414;2023-06-10T06:06:26;22.10;99.90
3053;DHT22;1536;51.098;6.414;2023-06-10T06:08:52;22.20;99.90
3053;DHT22;1536;51.098;6.414;2023-06-10T06:11:20;22.30;99.90
3053;DHT22;1536;51.098;6.414;2023-06-10T06:13:47;22.30;99.90
3053;DHT22;1536;51.098;6.414;2023-06-10T06:16:14;22.40;99.90
3053;DHT22;1536;51.098;6.414;2023-06-10T06:18:41;22.50;99.90
3053;DHT22;1536;51.098;6.414;2023-06-10T06:21:07;22.50;99.90
3053;DHT22;1536;51.098;6.414;2023-06-10T06:23:34;22.60;99.90
3053;DHT22;1536;51.098;6.414;2023-06-10T06:26:01;22.70;99.90
3053;DHT22;1536;51.098;6.414;2023-06-10T06:28:29;22.80;99.90
3053;DHT22;1536;51.098;6.414;2023-06-10T06:30:56;22.90;99.90
3053;DHT22;1536;51.098;6.414;2023-06-10T06:33:23;22.90;99.90
3053;DHT22;1536;51.098;6.414;2023-06-10T06:35:51;23.00;99.90
3053;DHT22;1536;51.098;6.414;2023-06-10T06:38:18;23.10;99.90
3053;DHT22;1536;51.098;6.414;2023-06-10T06:40:45;23.10;99.90
3053;DHT22;1536;51.098;6.414;2023-06-10T06:43:11;23.30;99.90
3053;DHT22;1536;51.098;6.414;2023-06-10T06:45:40;23.30;99.90
3053;DHT22;1536;51.098;6.414;2023-06-10T06:48:06;23.40;99.90
3053;DHT22;1536;51.098;6.414;2023-06-10T06:50:33;23.40;99.90
3053;DHT22;1536;51.098;6.414;2023-06-10T06:53:00;23.50;99.90
3053;DHT22;1536;51.098;6.414;2023-06-10T06:55:27;23.60;99.90
3053;DHT22;1536;51.098;6.414;2023-06-10T06:57:53;23.60;99.90
3053;DHT22;1536;51.098;6.414;2023-06-10T07:00:21;23.70;99.90
3053;DHT22;1536;51.098;6.414;2023-06-10T07:02:49;23.70;99.90
3053;DHT22;1536;51.098;6.414;2023-06-10T07:05:16;23.80;99.90
3053;DHT22;1536;51.098;6.414;2023-06-10T07:07:43;23.90;99.90
3053;DHT22;1536;51.098;6.414;2023-06-10T07:10:10;23.90;99.90
3053;DHT22;1536;51.098;6.414;2023-06-10T07:12:36;24.10;99.90
3053;DHT22;1536;51.098;6.414;2023-06-10T07:15:04;24.10;99.90
3053;DHT22;1536;51.098;6.414;2023-06-10T07:17:31;24.20;99.90
3053;DHT22;1536;51.098;6.414;2023-06-10T07:19:59;24.30;99.90
3053;DHT22;1536;51.098;6.414;2023-06-10T07:22:25;24.30;99.90
3053;DHT22;1536;51.098;6.414;2023-06-10T07:24:52;24.40;99.90
3053;DHT22;1536;51.098;6.414;2023-06-10T07:27:20;24.50;99.90
3053;DHT22;1536;51.098;6.414;2023-06-10T07:29:46;24.60;99.90
3053;DHT22;1536;51.098;6.414;2023-06-10T07:32:13;24.60;99.90
3053;DHT22;1536;51.098;6.414;2023-06-10T07:34:40;24.70;99.90
3053;DHT22;1536;51.098;6.414;2023-06-10T07:37:08;24.80;99.90
3053;DHT22;1536;51.098;6.414;2023-06-10T07:39:35;24.90;99.90
3053;DHT22;1536;51.098;6.414;2023-06-10T07:42:02;24.90;99.90
3053;DHT22;1536;51.098;6.414;2023-06-10T07:44:28;25.00;99.90
3053;DHT22;1536;51.098;6.414;2023-06-10T07:46:55;25.10;99.90
3053;DHT22;1536;51.098;6.414;2023-06-10T07:49:23;25.20;99.90
3053;DHT22;1536;51.098;6.414;2023-06-10T07:51:50;25.30;99.90
3053;DHT22;1536;51.098;6.414;2023-06-10T07:54:18;25.40;99.90
3053;DHT22;1536;51.098;6.414;2023-06-10T07:56:45;25.50;99.90
3053;DHT22;1536;51.098;6.414;2023-06-10T07:59:13;25.60;99.90
3053;DHT22;1536;51.098;6.414;2023-06-10T08:01:40;25.70;99.90
3053;DHT22;1536;51.098;6.414;2023-06-10T08:04:08;25.80;99.80
3053;DHT22;1536;51.098;6.414;2023-06-10T08:06:35;25.90;99.60
3053;DHT22;1536;51.098;6.414;2023-06-10T08:09:02;26.00;99.40
3053;DHT22;1536;51.098;6.414;2023-06-10T08:11:33;26.10;99.10
3053;DHT22;1536;51.098;6.414;2023-06-10T08:14:01;26.20;98.90
3053;DHT22;1536;51.098;6.414;2023-06-10T08:16:28;26.30;98.80
3053;DHT22;1536;51.098;6.414;2023-06-10T08:18:55;26.50;98.60
3053;DHT22;1536;51.098;6.414;2023-06-10T08:21:21;26.60;98.30
3053;DHT22;1536;51.098;6.414;2023-06-10T08:23:52;26.70;98.40
3053;DHT22;1536;51.098;6.414;2023-06-10T08:26:19;26.80;98.00
3053;DHT22;1536;51.098;6.414;2023-06-10T08:28:47;26.90;97.50
3053;DHT22;1536;51.098;6.414;2023-06-10T08:31:13;27.10;97.10
3053;DHT22;1536;51.098;6.414;2023-06-10T08:33:41;27.20;96.50
3053;DHT22;1536;51.098;6.414;2023-06-10T08:36:08;27.30;96.20
3053;DHT22;1536;51.098;6.414;2023-06-10T08:38:35;27.40;95.90
3053;DHT22;1536;51.098;6.414;2023-06-10T08:41:01;27.50;95.60
3053;DHT22;1536;51.098;6.414;2023-06-10T08:43:33;27.60;95.30
3053;DHT22;1536;51.098;6.414;2023-06-10T08:46:01;27.70;94.50
3053;DHT22;1536;51.098;6.414;2023-06-10T08:48:29;27.70;93.90
3053;DHT22;1536;51.098;6.414;2023-06-10T08:50:57;27.80;93.60
3053;DHT22;1536;51.098;6.414;2023-06-10T08:53:26;27.90;92.60
3053;DHT22;1536;51.098;6.414;2023-06-10T08:55:54;27.90;92.60
3053;DHT22;1536;51.098;6.414;2023-06-10T08:58:23;28.00;92.70
3053;DHT22;1536;51.098;6.414;2023-06-10T09:00:51;28.10;92.10
3053;DHT22;1536;51.098;6.414;2023-06-10T09:03:19;28.20;92.00
3053;DHT22;1536;51.098;6.414;2023-06-10T09:05:46;28.20;91.60
3053;DHT22;1536;51.098;6.414;2023-06-10T09:08:13;28.30;92.10
3053;DHT22;1536;51.098;6.414;2023-06-10T09:10:42;28.30;92.20
3053;DHT22;1536;51.098;6.414;2023-06-10T09:13:08;28.40;92.50
3053;DHT22;1536;51.098;6.414;2023-06-10T09:15:35;28.50;92.50
3053;DHT22;1536;51.098;6.414;2023-06-10T09:18:02;28.50;92.40
3053;DHT22;1536;51.098;6.414;2023-06-10T09:20:31;28.60;92.50
3053;DHT22;1536;51.098;6.414;2023-06-10T09:22:59;28.70;92.40
3053;DHT22;1536;51.098;6.414;2023-06-10T09:25:35;28.70;92.00
3053;DHT22;1536;51.098;6.414;2023-06-10T09:28:03;28.80;92.00
3053;DHT22;1536;51.098;6.414;2023-06-10T09:30:31;28.90;91.60
3053;DHT22;1536;51.098;6.414;2023-06-10T09:33:01;28.90;91.70
3053;DHT22;1536;51.098;6.414;2023-06-10T09:35:29;29.00;91.50
3053;DHT22;1536;51.098;6.414;2023-06-10T09:37:58;29.10;91.20
3053;DHT22;1536;51.098;6.414;2023-06-10T09:40:26;29.10;90.90
3053;DHT22;1536;51.098;6.414;2023-06-10T09:42:54;29.20;90.80
3053;DHT22;1536;51.098;6.414;2023-06-10T09:45:22;29.30;90.40
3053;DHT22;1536;51.098;6.414;2023-06-10T09:47:52;29.30;90.40
3053;DHT22;1536;51.098;6.414;2023-06-10T09:50:19;29.40;90.20
3053;DHT22;1536;51.098;6.414;2023-06-10T09:52:46;29.50;90.40
3053;DHT22;1536;51.098;6.414;2023-06-10T09:55:14;29.60;90.20
3053;DHT22;1536;51.098;6.414;2023-06-10T09:57:41;29.70;90.20
3053;DHT22;1536;51.098;6.414;2023-06-10T10:00:11;29.80;89.20
3053;DHT22;1536;51.098;6.414;2023-06-10T10:02:45;29.80;87.90
3053;DHT22;1536;51.098;6.414;2023-06-10T10:05:13;29.90;88.40
3053;DHT22;1536;51.098;6.414;2023-06-10T10:07:40;30.00;88.10
3053;DHT22;1536;51.098;6.414;2023-06-10T10:10:08;30.00;87.90
3053;DHT22;1536;51.098;6.414;2023-06-10T10:12:38;30.10;86.80
3053;DHT22;1536;51.098;6.414;2023-06-10T10:15:06;30.10;87.30
3053;DHT22;1536;51.098;6.414;2023-06-10T10:17:34;30.20;85.20
3053;DHT22;1536;51.098;6.414;2023-06-10T10:20:05;30.30;84.40
3053;DHT22;1536;51.098;6.414;2023-06-10T10:22:36;30.30;85.10
3053;DHT22;1536;51.098;6.414;2023-06-10T10:25:07;30.40;85.10
3053;DHT22;1536;51.098;6.414;2023-06-10T10:27:42;30.50;83.80
3053;DHT22;1536;51.098;6.414;2023-06-10T10:30:11;30.50;83.90
3053;DHT22;1536;51.098;6.414;2023-06-10T10:32:45;30.60;84.10
3053;DHT22;1536;51.098;6.414;2023-06-10T10:35:17;30.70;84.00
3053;DHT22;1536;51.098;6.414;2023-06-10T10:37:47;30.70;81.60
3053;DHT22;1536;51.098;6.414;2023-06-10T10:40:14;30.70;82.20
3053;DHT22;1536;51.098;6.414;2023-06-10T10:42:43;30.80;81.90
3053;DHT22;1536;51.098;6.414;2023-06-10T10:45:11;30.90;81.10
3053;DHT22;1536;51.098;6.414;2023-06-10T10:50:13;30.90;78.20
3053;DHT22;1536;51.098;6.414;2023-06-10T10:55:13;31.00;78.30
3053;DHT22;1536;51.098;6.414;2023-06-10T10:57:40;31.00;78.30
3053;DHT22;1536;51.098;6.414;2023-06-10T11:00:10;31.10;79.00
3053;DHT22;1536;51.098;6.414;2023-06-10T11:02:40;31.20;78.60
3053;DHT22;1536;51.098;6.414;2023-06-10T11:05:09;31.20;78.70
3053;DHT22;1536;51.098;6.414;2023-06-10T11:07:36;31.20;86.90
3053;DHT22;1536;51.098;6.414;2023-06-10T11:10:07;31.30;75.10
3053;DHT22;1536;51.098;6.414;2023-06-10T11:12:49;31.30;75.50
3053;DHT22;1536;51.098;6.414;2023-06-10T11:15:20;31.40;75.90
3053;DHT22;1536;51.098;6.414;2023-06-10T11:18:06;31.40;74.50
3053;DHT22;1536;51.098;6.414;2023-06-10T11:20:51;31.40;74.30
3053;DHT22;1536;51.098;6.414;2023-06-10T11:26:10;31.50;74.60
3053;DHT22;1536;51.098;6.414;2023-06-10T11:28:37;31.60;75.30
3053;DHT22;1536;51.098;6.414;2023-06-10T11:31:05;31.70;73.50
3053;DHT22;1536;51.098;6.414;2023-06-10T11:33:32;31.70;72.50
3053;DHT22;1536;51.098;6.414;2023-06-10T11:35:59;31.70;71.50
3053;DHT22;1536;51.098;6.414;2023-06-10T11:38:26;31.70;71.30
3053;DHT22;1536;51.098;6.414;2023-06-10T11:40:54;31.70;71.30
3053;DHT22;1536;51.098;6.414;2023-06-10T11:43:22;31.70;71.20
3053;DHT22;1536;51.098;6.414;2023-06-10T11:45:54;31.80;71.20
3053;DHT22;1536;51.098;6.414;2023-06-10T11:48:22;31.80;71.10
3053;DHT22;1536;51.098;6.414;2023-06-10T11:50:48;31.80;71.30
3053;DHT22;1536;51.098;6.414;2023-06-10T11:53:15;31.60;71.70
3053;DHT22;1536;51.098;6.414;2023-06-10T11:55:44;31.40;72.20
3053;DHT22;1536;51.098;6.414;2023-06-10T11:58:14;31.20;71.90
3053;DHT22;1536;51.098;6.414;2023-06-10T12:00:45;31.10;72.40
3053;DHT22;1536;51.098;6.414;2023-06-10T12:03:12;30.90;72.50
3053;DHT22;1536;51.098;6.414;2023-06-10T12:05:40;30.80;73.10
3053;DHT22;1536;51.098;6.414;2023-06-10T12:08:19;30.60;72.10
3053;DHT22;1536;51.098;6.414;2023-06-10T12:10:46;30.50;72.80
3053;DHT22;1536;51.098;6.414;2023-06-10T12:13:13;30.40;73.30
3053;DHT22;1536;51.098;6.414;2023-06-10T12:15:40;30.30;73.30
3053;DHT22;1536;51.098;6.414;2023-06-10T12:18:07;30.20;72.70
3053;DHT22;1536;51.098;6.414;2023-06-10T12:20:35;30.10;72.20
3053;DHT22;1536;51.098;6.414;2023-06-10T12:23:10;30.00;72.70
3053;DHT22;1536;51.098;6.414;2023-06-10T12:25:37;30.00;73.40
3053;DHT22;1536;51.098;6.414;2023-06-10T12:28:05;30.00;73.70
3053;DHT22;1536;51.098;6.414;2023-06-10T12:30:32;29.90;74.20
3053;DHT22;1536;51.098;6.414;2023-06-10T12:32:59;30.10;74.80
3053;DHT22;1536;51.098;6.414;2023-06-10T12:35:27;30.30;75.10
3053;DHT22;1536;51.098;6.414;2023-06-10T12:37:58;30.40;74.90
3053;DHT22;1536;51.098;6.414;2023-06-10T12:40:28;30.40;74.60
3053;DHT22;1536;51.098;6.414;2023-06-10T12:42:56;30.40;74.50
3053;DHT22;1536;51.098;6.414;2023-06-10T12:45:30;30.30;74.70
3053;DHT22;1536;51.098;6.414;2023-06-10T12:48:06;30.20;74.40
3053;DHT22;1536;51.098;6.414;2023-06-10T12:50:34;30.20;73.50
3053;DHT22;1536;51.098;6.414;2023-06-10T12:53:02;30.30;72.50
3053;DHT22;1536;51.098;6.414;2023-06-10T12:55:30;30.50;73.40
3053;DHT22;1536;51.098;6.414;2023-06-10T12:57:57;30.70;73.40
3053;DHT22;1536;51.098;6.414;2023-06-10T13:00:24;30.90;74.60
3053;DHT22;1536;51.098;6.414;2023-06-10T13:02:53;31.10;73.60
3053;DHT22;1536;51.098;6.414;2023-06-10T13:05:20;31.20;70.00
3053;DHT22;1536;51.098;6.414;2023-06-10T13:07:47;31.20;67.70
3053;DHT22;1536;51.098;6.414;2023-06-10T13:10:14;31.20;68.40
3053;DHT22;1536;51.098;6.414;2023-06-10T13:12:43;31.30;67.90
3053;DHT22;1536;51.098;6.414;2023-06-10T13:15:10;31.30;68.20
3053;DHT22;1536;51.098;6.414;2023-06-10T13:17:37;31.20;69.40
3053;DHT22;1536;51.098;6.414;2023-06-10T13:20:06;31.10;70.00
3053;DHT22;1536;51.098;6.414;2023-06-10T13:22:33;31.00;69.80
3053;DHT22;1536;51.098;6.414;2023-06-10T13:25:02;31.00;69.90
3053;DHT22;1536;51.098;6.414;2023-06-10T13:27:29;30.90;70.00
3053;DHT22;1536;51.098;6.414;2023-06-10T13:29:57;30.80;69.40
3053;DHT22;1536;51.098;6.414;2023-06-10T13:32:24;30.70;70.30
3053;DHT22;1536;51.098;6.414;2023-06-10T13:34:51;30.50;70.40
3053;DHT22;1536;51.098;6.414;2023-06-10T13:37:18;30.40;70.60
3053;DHT22;1536;51.098;6.414;2023-06-10T13:39:45;30.40;71.40
3053;DHT22;1536;51.098;6.414;2023-06-10T13:42:13;30.50;71.60
3053;DHT22;1536;51.098;6.414;2023-06-10T13:44:40;30.80;71.30
3053;DHT22;1536;51.098;6.414;2023-06-10T13:47:08;31.00;70.10
3053;DHT22;1536;51.098;6.414;2023-06-10T13:49:35;31.20;69.10
3053;DHT22;1536;51.098;6.414;2023-06-10T13:52:03;31.40;68.50
3053;DHT22;1536;51.098;6.414;2023-06-10T13:54:29;31.40;69.10
3053;DHT22;1536;51.098;6.414;2023-06-10T13:56:56;31.40;68.50
3053;DHT22;1536;51.098;6.414;2023-06-10T13:59:23;31.40;67.30
3053;DHT22;1536;51.098;6.414;2023-06-10T14:01:50;31.30;67.50
3053;DHT22;1536;51.098;6.414;2023-06-10T14:04:18;31.20;68.00
3053;DHT22;1536;51.098;6.414;2023-06-10T14:06:44;31.20;68.20
3053;DHT22;1536;51.098;6.414;2023-06-10T14:09:12;31.10;68.60
3053;DHT22;1536;51.098;6.414;2023-06-10T14:11:39;31.10;68.30
3053;DHT22;1536;51.098;6.414;2023-06-10T14:14:07;31.00;68.70
3053;DHT22;1536;51.098;6.414;2023-06-10T14:16:33;31.00;68.60
3053;DHT22;1536;51.098;6.414;2023-06-10T14:19:00;31.00;68.50
3053;DHT22;1536;51.098;6.414;2023-06-10T14:21:28;31.00;69.20
3053;DHT22;1536;51.098;6.414;2023-06-10T14:23:55;31.00;69.20
3053;DHT22;1536;51.098;6.414;2023-06-10T14:26:21;30.90;68.10
3053;DHT22;1536;51.098;6.414;2023-06-10T14:28:48;30.80;68.50
3053;DHT22;1536;51.098;6.414;2023-06-10T14:31:16;30.70;70.30
3053;DHT22;1536;51.098;6.414;2023-06-10T14:33:42;30.60;70.80
3053;DHT22;1536;51.098;6.414;2023-06-10T14:36:09;30.50;70.30
3053;DHT22;1536;51.098;6.414;2023-06-10T14:38:37;30.50;71.10
3053;DHT22;1536;51.098;6.414;2023-06-10T14:41:06;30.70;72.00
3053;DHT22;1536;51.098;6.414;2023-06-10T14:43:33;30.90;71.30
3053;DHT22;1536;51.098;6.414;2023-06-10T14:46:00;31.20;70.00
3053;DHT22;1536;51.098;6.414;2023-06-10T14:48:26;31.60;69.20
3053;DHT22;1536;51.098;6.414;2023-06-10T14:50:53;31.80;68.30
3053;DHT22;1536;51.098;6.414;2023-06-10T14:53:20;32.00;66.60
3053;DHT22;1536;51.098;6.414;2023-06-10T14:55:48;32.20;64.10
3053;DHT22;1536;51.098;6.414;2023-06-10T14:58:15;32.20;63.80
3053;DHT22;1536;51.098;6.414;2023-06-10T15:00:42;32.10;65.70
3053;DHT22;1536;51.098;6.414;2023-06-10T15:03:09;32.10;66.50
3053;DHT22;1536;51.098;6.414;2023-06-10T15:05:35;32.30;67.00
3053;DHT22;1536;51.098;6.414;2023-06-10T15:08:03;32.40;64.80
3053;DHT22;1536;51.098;6.414;2023-06-10T15:10:30;32.50;63.30
3053;DHT22;1536;51.098;6.414;2023-06-10T15:12:58;32.60;63.70
3053;DHT22;1536;51.098;6.414;2023-06-10T15:15:25;32.80;63.70
3053;DHT22;1536;51.098;6.414;2023-06-10T15:17:52;32.90;62.70
3053;DHT22;1536;51.098;6.414;2023-06-10T15:20:19;33.00;61.80
3053;DHT22;1536;51.098;6.414;2023-06-10T15:22:45;33.00;62.30
3053;DHT22;1536;51.098;6.414;2023-06-10T15:25:12;33.20;63.90
3053;DHT22;1536;51.098;6.414;2023-06-10T15:27:39;33.20;63.70
3053;DHT22;1536;51.098;6.414;2023-06-10T15:30:08;33.30;64.00
3053;DHT22;1536;51.098;6.414;2023-06-10T15:32:35;33.30;64.10
3053;DHT22;1536;51.098;6.414;2023-06-10T15:35:01;33.40;64.80
3053;DHT22;1536;51.098;6.414;2023-06-10T15:37:28;33.40;65.10
3053;DHT22;1536;51.098;6.414;2023-06-10T15:39:55;33.40;65.50
3053;DHT22;1536;51.098;6.414;2023-06-10T15:42:22;33.40;63.70
3053;DHT22;1536;51.098;6.414;2023-06-10T15:44:49;33.30;62.70
3053;DHT22;1536;51.098;6.414;2023-06-10T15:47:19;33.30;62.90
3053;DHT22;1536;51.098;6.414;2023-06-10T15:49:46;33.20;63.00
3053;DHT22;1536;51.098;6.414;2023-06-10T15:52:12;33.20;60.10
3053;DHT22;1536;51.098;6.414;2023-06-10T15:54:39;33.10;60.30
3053;DHT22;1536;51.098;6.414;2023-06-10T15:57:06;33.00;60.50
3053;DHT22;1536;51.098;6.414;2023-06-10T15:59:33;33.00;60.80
3053;DHT22;1536;51.098;6.414;2023-06-10T16:02:00;33.00;61.00
3053;DHT22;1536;51.098;6.414;2023-06-10T16:04:30;33.00;60.90
3053;DHT22;1536;51.098;6.414;2023-06-10T16:06:56;33.00;60.40
3053;DHT22;1536;51.098;6.414;2023-06-10T16:09:23;32.90;59.70
3053;DHT22;1536;51.098;6.414;2023-06-10T16:11:50;32.90;60.50
3053;DHT22;1536;51.098;6.414;2023-06-10T16:14:17;32.90;59.90